sensor_id;sensor_type;location;lat;lon;timestamp;pressure;altitude;pressure_sealevel;temperature;humidity
62942;BME280;49042;47.318;19.874;2024-01-10T00:02:55;102148.81;;;-5.35;100.00
62942;BME280;49042;47.318;19.874;2024-01-10T00:05:57;102149.31;;;-5.45;100.00
62942;BME280;49042;47.318;19.874;2024-01-10T00:08:59;102155.66;;;-5.49;100.00
62942;BME280;49042;47.318;19.874;2024-01-10T00:12:00;102162.66;;;-5.61;100.00
62942;BME280;49042;47.318;19.874;2024-01-10T00:15:05;102148.28;;;-5.68;100.00
62942;BME280;49042;47.318;19.874;2024-01-10T00:18:07;102157.69;;;-5.74;100.00
62942;BME280;49042;47.318;19.874;2024-01-10T00:21:11;102147.94;;;-5.92;100.00
62942;BME280;49042;47.318;19.874;2024-01-10T00:24:12;102155.91;;;-5.96;100.00
62942;BME280;49042;47.318;19.874;2024-01-10T00:27:15;102156.94;;;-6.08;100.00
62942;BME280;49042;47.318;19.874;2024-01-10T00:30:17;102156.66;;;-6.17;100.00
62942;BME280;49042;47.318;19.874;2024-01-10T00:33:19;102165.47;;;-6.01;100.00
62942;BME280;49042;47.318;19.874;2024-01-10T00:36:20;102164.50;;;-5.88;100.00
62942;BME280;49042;47.318;19.874;2024-01-10T00:39:22;102155.94;;;-5.88;100.00
62942;BME280;49042;47.318;19.874;2024-01-10T00:42:24;102168.97;;;-5.93;100.00
62942;BME280;49042;47.318;19.874;2024-01-10T00:45:26;102164.22;;;-5.76;100.00
62942;BME280;49042;47.318;19.874;2024-01-10T00:48:27;102172.72;;;-5.83;100.00
62942;BME280;49042;47.318;19.874;2024-01-10T00:51:30;102177.72;;;-5.91;100.00
62942;BME280;49042;47.318;19.874;2024-01-10T00:54:32;102180.59;;;-5.95;100.00
62942;BME280;49042;47.318;19.874;2024-01-10T00:57:34;102173.09;;;-6.01;100.00
62942;BME280;49042;47.318;19.874;2024-01-10T01:00:36;102170.28;;;-5.89;100.00
62942;BME280;49042;47.318;19.874;2024-01-10T01:03:39;102170.28;;;-5.89;100.00
62942;BME280;49042;47.318;19.874;2024-01-10T01:06:42;102176.88;;;-5.84;100.00
62942;BME280;49042;47.318;19.874;2024-01-10T01:09:44;102167.03;;;-5.88;100.00
62942;BME280;49042;47.318;19.874;2024-01-10T01:12:47;102172.28;;;-5.86;100.00
62942;BME280;49042;47.318;19.874;2024-01-10T01:15:49;102168.06;;;-5.93;100.00
62942;BME280;49042;47.318;19.874;2024-01-10T01:18:52;102169.91;;;-5.92;100.00
62942;BME280;49042;47.318;19.874;2024-01-10T01:21:55;102169.25;;;-5.84;100.00
62942;BME280;49042;47.318;19.874;2024-01-10T01:24:59;102162.22;;;-5.99;100.00
62942;BME280;49042;47.318;19.874;2024-01-10T01:28:00;102162.53;;;-6.04;100.00
62942;BME280;49042;47.318;19.874;2024-01-10T01:31:02;102165.59;;;-6.14;100.00
62942;BME280;49042;47.318;19.874;2024-01-10T01:34:05;102165.87;;;-5.97;100.00
62942;BME280;49042;47.318;19.874;2024-01-10T01:37:07;102169.31;;;-5.97;100.00
62942;BME280;49042;47.318;19.874;2024-01-10T01:40:10;102164.97;;;-5.98;100.00
62942;BME280;49042;47.318;19.874;2024-01-10T01:43:39;102170.97;;;-5.97;100.00
62942;BME280;49042;47.318;19.874;2024-01-10T01:46:41;102166.72;;;-6.11;100.00
62942;BME280;49042;47.318;19.874;2024-01-10T01:49:43;102168.38;;;-6.25;100.00
62942;BME280;49042;47.318;19.874;2024-01-10T01:52:46;102163.91;;;-6.20;100.00
62942;BME280;49042;47.318;19.874;2024-01-10T01:55:49;102170.41;;;-6.43;100.00
62942;BME280;49042;47.318;19.874;2024-01-10T01:58:52;102168.13;;;-6.54;100.00
62942;BME280;49042;47.318;19.874;2024-01-10T02:01:55;102166.50;;;-6.34;100.00
62942;BME280;49042;47.318;19.874;2024-01-10T02:04:58;102168.34;;;-6.32;100.00
62942;BME280;49042;47.318;19.874;2024-01-10T02:08:01;102170.59;;;-6.21;100.00
62942;BME280;49042;47.318;19.874;2024-01-10T02:11:03;102159.94;;;-6.39;100.00
62942;BME280;49042;47.318;19.874;2024-01-10T02:14:06;102162.84;;;-6.36;100.00
62942;BME280;49042;47.318;19.874;2024-01-10T02:17:07;102164.22;;;-6.25;100.00
62942;BME280;49042;47.318;19.874;2024-01-10T02:23:12;102153.88;;;-6.26;100.00
62942;BME280;49042;47.318;19.874;2024-01-10T02:26:15;102153.38;;;-6.44;100.00
62942;BME280;49042;47.318;19.874;2024-01-10T02:29:17;102152.13;;;-6.40;100.00
62942;BME280;49042;47.318;19.874;2024-01-10T02:32:19;102157.59;;;-6.37;100.00
62942;BME280;49042;47.318;19.874;2024-01-10T02:35:21;102156.16;;;-6.35;100.00
62942;BME280;49042;47.318;19.874;2024-01-10T02:38:23;102157.38;;;-6.39;100.00
62942;BME280;49042;47.318;19.874;2024-01-10T02:41:25;102157.59;;;-6.37;100.00
62942;BME280;49042;47.318;19.874;2024-01-10T02:44:28;102149.59;;;-6.40;100.00
62942;BME280;49042;47.318;19.874;2024-01-10T02:47:30;102156.53;;;-6.52;100.00
62942;BME280;49042;47.318;19.874;2024-01-10T02:50:32;102152.37;;;-6.52;100.00
62942;BME280;49042;47.318;19.874;2024-01-10T02:53:34;102155.97;;;-6.37;100.00
62942;BME280;49042;47.318;19.874;2024-01-10T02:56:35;102158.44;;;-6.44;100.00
62942;BME280;49042;47.318;19.874;2024-01-10T02:59:37;102152.31;;;-6.39;100.00
62942;BME280;49042;47.318;19.874;2024-01-10T03:02:39;102157.38;;;-6.39;100.00
62942;BME280;49042;47.318;19.874;2024-01-10T03:05:41;102146.66;;;-6.43;100.00
62942;BME280;49042;47.318;19.874;2024-01-10T03:08:42;102143.06;;;-6.38;100.00
62942;BME280;49042;47.318;19.874;2024-01-10T03:11:44;102147.09;;;-6.53;100.00
62942;BME280;49042;47.318;19.874;2024-01-10T03:14:46;102146.91;;;-6.55;100.00
62942;BME280;49042;47.318;19.874;2024-01-10T03:17:47;102143.38;;;-6.42;100.00
62942;BME280;49042;47.318;19.874;2024-01-10T03:20:49;102138.25;;;-6.50;100.00
62942;BME280;49042;47.318;19.874;2024-01-10T03:23:53;102143.59;;;-6.41;100.00
62942;BME280;49042;47.318;19.874;2024-01-10T03:26:55;102146.44;;;-6.25;100.00
62942;BME280;49042;47.318;19.874;2024-01-10T03:29:57;102144.19;;;-6.36;100.00
62942;BME280;49042;47.318;19.874;2024-01-10T03:32:58;102147.63;;;-6.36;100.00
62942;BME280;49042;47.318;19.874;2024-01-10T03:36:00;102144.38;;;-6.35;100.00
62942;BME280;49042;47.318;19.874;2024-01-10T03:39:02;102143.84;;;-6.32;100.00
62942;BME280;49042;47.318;19.874;2024-01-10T03:42:04;102143.25;;;-6.57;100.00
62942;BME280;49042;47.318;19.874;2024-01-10T03:45:06;102127.56;;;-6.68;100.00
62942;BME280;49042;47.318;19.874;2024-01-10T03:48:08;102139.00;;;-6.64;100.00
62942;BME280;49042;47.318;19.874;2024-01-10T03:51:10;102145.28;;;-6.75;100.00
62942;BME280;49042;47.318;19.874;2024-01-10T03:54:12;102138.37;;;-6.76;100.00
62942;BME280;49042;47.318;19.874;2024-01-10T03:57:13;102141.34;;;-6.86;100.00
62942;BME280;49042;47.318;19.874;2024-01-10T04:00:15;102146.22;;;-6.67;100.00
62942;BME280;49042;47.318;19.874;2024-01-10T04:03:17;102139.53;;;-6.67;100.00
62942;BME280;49042;47.318;19.874;2024-01-10T04:06:19;102149.22;;;-6.77;100.00
62942;BME280;49042;47.318;19.874;2024-01-10T04:09:22;102150.75;;;-6.85;100.00
62942;BME280;49042;47.318;19.874;2024-01-10T04:12:23;102156.50;;;-6.93;100.00
62942;BME280;49042;47.318;19.874;2024-01-10T04:15:25;102149.56;;;-6.94;100.00
62942;BME280;49042;47.318;19.874;2024-01-10T04:18:27;102146.44;;;-6.99;100.00
62942;BME280;49042;47.318;19.874;2024-01-10T04:21:28;102153.47;;;-7.04;100.00
62942;BME280;49042;47.318;19.874;2024-01-10T04:24:30;102149.63;;;-7.07;100.00
62942;BME280;49042;47.318;19.874;2024-01-10T04:27:32;102164.66;;;-7.22;100.00
62942;BME280;49042;47.318;19.874;2024-01-10T04:30:34;102155.81;;;-7.18;100.00
62942;BME280;49042;47.318;19.874;2024-01-10T04:33:36;102156.81;;;-7.24;100.00
62942;BME280;49042;47.318;19.874;2024-01-10T04:36:38;102163.44;;;-7.18;100.00
62942;BME280;49042;47.318;19.874;2024-01-10T04:39:40;102160.59;;;-7.27;100.00
62942;BME280;49042;47.318;19.874;2024-01-10T04:42:41;102157.38;;;-7.39;100.00
62942;BME280;49042;47.318;19.874;2024-01-10T04:45:43;102159.28;;;-7.44;100.00
62942;BME280;49042;47.318;19.874;2024-01-10T04:48:45;102153.81;;;-7.34;100.00
62942;BME280;49042;47.318;19.874;2024-01-10T04:51:47;102169.66;;;-7.43;100.00
62942;BME280;49042;47.318;19.874;2024-01-10T04:54:49;102177.03;;;-7.44;100.00
62942;BME280;49042;47.318;19.874;2024-01-10T04:57:51;102178.94;;;-7.49;100.00
62942;BME280;49042;47.318;19.874;2024-01-10T05:00:53;102183.44;;;-7.41;100.00
62942;BME280;49042;47.318;19.874;2024-01-10T05:03:54;102183.81;;;-7.37;100.00
62942;BME280;49042;47.318;19.874;2024-01-10T05:06:56;102184.03;;;-7.36;100.00
62942;BME280;49042;47.318;19.874;2024-01-10T05:09:58;102179.56;;;-7.31;100.00
62942;BME280;49042;47.318;19.874;2024-01-10T05:13:00;102198.12;;;-7.38;100.00
62942;BME280;49042;47.318;19.874;2024-01-10T05:16:01;102177.84;;;-7.51;100.00
62942;BME280;49042;47.318;19.874;2024-01-10T05:19:03;102181.50;;;-7.62;100.00
62942;BME280;49042;47.318;19.874;2024-01-10T05:22:05;102177.56;;;-7.47;100.00
62942;BME280;49042;47.318;19.874;2024-01-10T05:25:08;102178.87;;;-7.43;100.00
62942;BME280;49042;47.318;19.874;2024-01-10T05:28:09;102179.69;;;-7.50;100.00
62942;BME280;49042;47.318;19.874;2024-01-10T05:31:11;102179.47;;;-7.25;100.00
62942;BME280;49042;47.318;19.874;2024-01-10T05:34:13;102180.56;;;-7.23;100.00
62942;BME280;49042;47.318;19.874;2024-01-10T05:37:15;102190.22;;;-7.34;100.00
62942;BME280;49042;47.318;19.874;2024-01-10T05:40:17;102188.19;;;-7.36;100.00
62942;BME280;49042;47.318;19.874;2024-01-10T05:43:19;102192.44;;;-7.29;100.00
62942;BME280;49042;47.318;19.874;2024-01-10T05:46:21;102193.97;;;-7.50;100.00
62942;BME280;49042;47.318;19.874;2024-01-10T05:49:23;102187.28;;;-7.50;100.00
62942;BME280;49042;47.318;19.874;2024-01-10T05:52:25;102185.06;;;-7.67;100.00
62942;BME280;49042;47.318;19.874;2024-01-10T05:55:26;102186.78;;;-7.60;100.00
62942;BME280;49042;47.318;19.874;2024-01-10T05:58:28;102185.16;;;-7.47;100.00
62942;BME280;49042;47.318;19.874;2024-01-10T06:01:30;102184.66;;;-7.70;100.00
62942;BME280;49042;47.318;19.874;2024-01-10T06:04:31;102187.59;;;-7.54;100.00
62942;BME280;49042;47.318;19.874;2024-01-10T06:07:33;102189.09;;;-7.49;100.00
62942;BME280;49042;47.318;19.874;2024-01-10T06:10:35;102198.34;;;-7.36;100.00
62942;BME280;49042;47.318;19.874;2024-01-10T06:13:38;102193.66;;;-7.33;100.00
62942;BME280;49042;47.318;19.874;2024-01-10T06:16:54;102203.00;;;-7.39;100.00
62942;BME280;49042;47.318;19.874;2024-01-10T06:19:57;102199.97;;;-7.50;100.00
62942;BME280;49042;47.318;19.874;2024-01-10T06:23:01;102205.25;;;-7.35;100.00
62942;BME280;49042;47.318;19.874;2024-01-10T06:26:03;102199.13;;;-7.30;100.00
62942;BME280;49042;47.318;19.874;2024-01-10T06:29:05;102205.53;;;-7.26;100.00
62942;BME280;49042;47.318;19.874;2024-01-10T06:32:07;102202.78;;;-7.15;100.00
62942;BME280;49042;47.318;19.874;2024-01-10T06:35:09;102202.91;;;-7.34;100.00
62942;BME280;49042;47.318;19.874;2024-01-10T06:38:12;102201.56;;;-7.37;100.00
62942;BME280;49042;47.318;19.874;2024-01-10T06:41:14;102201.06;;;-7.22;100.00
62942;BME280;49042;47.318;19.874;2024-01-10T06:44:16;102202.59;;;-7.29;100.00
62942;BME280;49042;47.318;19.874;2024-01-10T06:47:21;102205.34;;;-7.28;100.00
62942;BME280;49042;47.318;19.874;2024-01-10T06:50:23;102209.37;;;-7.10;100.00
62942;BME280;49042;47.318;19.874;2024-01-10T06:53:25;102207.81;;;-6.75;100.00
62942;BME280;49042;47.318;19.874;2024-01-10T06:56:27;102210.69;;;-6.59;100.00
62942;BME280;49042;47.318;19.874;2024-01-10T06:59:29;102209.37;;;-6.29;100.00
62942;BME280;49042;47.318;19.874;2024-01-10T07:02:31;102216.44;;;-5.58;100.00
62942;BME280;49042;47.318;19.874;2024-01-10T07:05:33;102217.66;;;-5.06;100.00
62942;BME280;49042;47.318;19.874;2024-01-10T07:08:35;102211.62;;;-4.64;100.00
62942;BME280;49042;47.318;19.874;2024-01-10T07:11:37;102210.03;;;-4.34;100.00
62942;BME280;49042;47.318;19.874;2024-01-10T07:14:39;102200.41;;;-4.30;100.00
62942;BME280;49042;47.318;19.874;2024-01-10T07:17:41;102210.81;;;-4.21;100.00
62942;BME280;49042;47.318;19.874;2024-01-10T07:20:43;102210.81;;;-3.91;97.02
62942;BME280;49042;47.318;19.874;2024-01-10T07:23:44;102219.13;;;-3.34;93.45
62942;BME280;49042;47.318;19.874;2024-01-10T07:26:46;102213.28;;;-3.25;92.14
62942;BME280;49042;47.318;19.874;2024-01-10T07:29:48;102212.31;;;-1.87;78.61
62942;BME280;49042;47.318;19.874;2024-01-10T07:32:50;102211.62;;;-0.81;65.96
62942;BME280;49042;47.318;19.874;2024-01-10T07:35:51;102220.44;;;0.14;59.46
62942;BME280;49042;47.318;19.874;2024-01-10T07:38:55;102211.16;;;0.84;55.17
62942;BME280;49042;47.318;19.874;2024-01-10T07:41:57;102213.84;;;0.86;54.18
62942;BME280;49042;47.318;19.874;2024-01-10T07:44:59;102218.50;;;1.62;51.17
62942;BME280;49042;47.318;19.874;2024-01-10T07:48:01;102218.16;;;2.79;49.18
62942;BME280;49042;47.318;19.874;2024-01-10T07:51:03;102222.31;;;3.46;45.00
62942;BME280;49042;47.318;19.874;2024-01-10T07:54:05;102217.66;;;2.64;45.32
62942;BME280;49042;47.318;19.874;2024-01-10T07:57:07;102221.16;;;2.27;46.35
62942;BME280;49042;47.318;19.874;2024-01-10T08:00:09;102228.62;;;0.71;49.17
62942;BME280;49042;47.318;19.874;2024-01-10T08:03:12;102226.19;;;0.46;51.99
62942;BME280;49042;47.318;19.874;2024-01-10T08:06:14;102226.84;;;0.88;52.29
62942;BME280;49042;47.318;19.874;2024-01-10T08:09:27;102213.34;;;2.73;48.88
62942;BME280;49042;47.318;19.874;2024-01-10T08:12:29;102222.38;;;5.43;42.78
62942;BME280;49042;47.318;19.874;2024-01-10T08:15:31;102220.09;;;7.92;37.22
62942;BME280;49042;47.318;19.874;2024-01-10T08:18:35;102222.19;;;9.69;32.99
62942;BME280;49042;47.318;19.874;2024-01-10T08:21:37;102223.53;;;10.92;30.42
62942;BME280;49042;47.318;19.874;2024-01-10T08:24:56;102227.22;;;13.48;27.15
62942;BME280;49042;47.318;19.874;2024-01-10T08:27:58;102217.84;;;15.36;24.01
62942;BME280;49042;47.318;19.874;2024-01-10T08:31:00;102210.66;;;16.25;23.23
62942;BME280;49042;47.318;19.874;2024-01-10T08:34:05;102212.50;;;15.11;23.25
62942;BME280;49042;47.318;19.874;2024-01-10T08:37:08;102221.84;;;15.26;23.80
62942;BME280;49042;47.318;19.874;2024-01-10T08:40:11;102216.59;;;15.04;23.52
62942;BME280;49042;47.318;19.874;2024-01-10T08:43:16;102222.28;;;13.54;24.59
62942;BME280;49042;47.318;19.874;2024-01-10T08:46:19;102225.94;;;15.19;23.45
62942;BME280;49042;47.318;19.874;2024-01-10T08:49:22;102225.12;;;15.89;22.88
62942;BME280;49042;47.318;19.874;2024-01-10T08:52:24;102225.91;;;16.10;22.47
62942;BME280;49042;47.318;19.874;2024-01-10T08:55:26;102230.28;;;15.40;22.55
62942;BME280;49042;47.318;19.874;2024-01-10T08:58:27;102226.44;;;17.89;20.43
62942;BME280;49042;47.318;19.874;2024-01-10T09:01:29;102227.16;;;18.14;20.22
62942;BME280;49042;47.318;19.874;2024-01-10T09:04:31;102232.81;;;20.64;16.54
62942;BME280;49042;47.318;19.874;2024-01-10T09:07:36;102225.22;;;23.04;15.42
62942;BME280;49042;47.318;19.874;2024-01-10T09:10:38;102221.19;;;23.83;14.91
62942;BME280;49042;47.318;19.874;2024-01-10T09:13:40;102220.50;;;24.86;13.73
62942;BME280;49042;47.318;19.874;2024-01-10T09:16:42;102221.38;;;24.79;13.34
62942;BME280;49042;47.318;19.874;2024-01-10T09:19:44;102222.03;;;25.83;12.77
62942;BME280;49042;47.318;19.874;2024-01-10T09:22:45;102227.28;;;26.07;12.36
62942;BME280;49042;47.318;19.874;2024-01-10T09:25:48;102216.22;;;26.62;12.45
62942;BME280;49042;47.318;19.874;2024-01-10T09:28:49;102215.59;;;26.25;12.50
62942;BME280;49042;47.318;19.874;2024-01-10T09:31:51;102213.06;;;26.00;12.55
62942;BME280;49042;47.318;19.874;2024-01-10T09:34:53;102205.75;;;26.26;11.94
62942;BME280;49042;47.318;19.874;2024-01-10T09:37:55;102213.84;;;26.16;12.04
62942;BME280;49042;47.318;19.874;2024-01-10T09:40:59;102208.34;;;23.05;13.14
62942;BME280;49042;47.318;19.874;2024-01-10T09:44:04;102207.09;;;25.32;12.07
62942;BME280;49042;47.318;19.874;2024-01-10T09:47:07;102199.00;;;26.91;11.57
62942;BME280;49042;47.318;19.874;2024-01-10T09:50:10;102196.56;;;22.71;13.37
62942;BME280;49042;47.318;19.874;2024-01-10T09:53:20;102191.53;;;23.12;13.40
62942;BME280;49042;47.318;19.874;2024-01-10T09:56:25;102199.91;;;20.51;14.59
62942;BME280;49042;47.318;19.874;2024-01-10T09:59:27;102187.59;;;24.57;12.39
62942;BME280;49042;47.318;19.874;2024-01-10T10:02:29;102183.47;;;22.98;13.40
62942;BME280;49042;47.318;19.874;2024-01-10T10:05:33;102173.41;;;24.41;12.68
62942;BME280;49042;47.318;19.874;2024-01-10T10:08:36;102176.00;;;24.24;12.59
62942;BME280;49042;47.318;19.874;2024-01-10T10:11:40;102164.50;;;26.61;11.63
62942;BME280;49042;47.318;19.874;2024-01-10T10:14:42;102154.69;;;24.13;12.68
62942;BME280;49042;47.318;19.874;2024-01-10T10:17:45;102158.50;;;22.77;13.72
62942;BME280;49042;47.318;19.874;2024-01-10T10:21:06;102159.56;;;21.99;14.09
62942;BME280;49042;47.318;19.874;2024-01-10T10:24:07;102163.75;;;21.81;14.25
62942;BME280;49042;47.318;19.874;2024-01-10T10:27:11;102157.25;;;21.54;14.81
62942;BME280;49042;47.318;19.874;2024-01-10T10:30:15;102156.00;;;21.97;14.68
62942;BME280;49042;47.318;19.874;2024-01-10T10:33:17;102152.88;;;24.18;13.25
62942;BME280;49042;47.318;19.874;2024-01-10T10:36:19;102147.84;;;26.23;11.83
62942;BME280;49042;47.318;19.874;2024-01-10T10:39:22;102141.03;;;25.75;12.02
62942;BME280;49042;47.318;19.874;2024-01-10T10:42:25;102143.69;;;25.75;12.42
62942;BME280;49042;47.318;19.874;2024-01-10T10:45:31;102149.22;;;25.37;11.94
62942;BME280;49042;47.318;19.874;2024-01-10T10:48:35;102140.97;;;23.09;12.81
62942;BME280;49042;47.318;19.874;2024-01-10T10:51:38;102143.34;;;22.73;13.29
62942;BME280;49042;47.318;19.874;2024-01-10T10:54:41;102144.78;;;25.36;11.92
62942;BME280;49042;47.318;19.874;2024-01-10T10:57:44;102136.00;;;24.14;12.71
62942;BME280;49042;47.318;19.874;2024-01-10T11:01:04;102125.69;;;18.04;16.08
62942;BME280;49042;47.318;19.874;2024-01-10T11:04:07;102128.03;;;12.46;21.61
62942;BME280;49042;47.318;19.874;2024-01-10T11:07:09;102127.94;;;10.79;23.16
62942;BME280;49042;47.318;19.874;2024-01-10T11:10:14;102121.16;;;9.49;24.69
62942;BME280;49042;47.318;19.874;2024-01-10T11:13:27;102125.47;;;9.49;25.65
62942;BME280;49042;47.318;19.874;2024-01-10T11:17:04;102118.53;;;7.13;27.99
62942;BME280;49042;47.318;19.874;2024-01-10T11:20:13;102121.63;;;6.37;30.18
62942;BME280;49042;47.318;19.874;2024-01-10T11:23:33;102118.09;;;5.67;30.96
62942;BME280;49042;47.318;19.874;2024-01-10T11:26:39;102118.06;;;5.22;31.63
62942;BME280;49042;47.318;19.874;2024-01-10T11:29:41;102128.44;;;5.11;33.25
62942;BME280;49042;47.318;19.874;2024-01-10T11:32:44;102117.66;;;5.95;30.71
62942;BME280;49042;47.318;19.874;2024-01-10T11:36:13;102113.94;;;4.38;33.91
62942;BME280;49042;47.318;19.874;2024-01-10T11:39:16;102115.56;;;5.23;33.33
62942;BME280;49042;47.318;19.874;2024-01-10T11:42:43;102116.94;;;5.08;33.43
62942;BME280;49042;47.318;19.874;2024-01-10T11:45:52;102106.84;;;5.11;33.92
62942;BME280;49042;47.318;19.874;2024-01-10T11:48:54;102102.78;;;5.25;38.19
62942;BME280;49042;47.318;19.874;2024-01-10T11:51:58;102113.84;;;5.34;37.78
62942;BME280;49042;47.318;19.874;2024-01-10T11:55:01;102107.25;;;5.61;32.59
62942;BME280;49042;47.318;19.874;2024-01-10T11:58:10;102106.41;;;5.50;32.48
62942;BME280;49042;47.318;19.874;2024-01-10T12:01:12;102105.66;;;4.64;34.06
62942;BME280;49042;47.318;19.874;2024-01-10T12:04:14;102097.13;;;4.65;33.49
62942;BME280;49042;47.318;19.874;2024-01-10T12:07:27;102101.91;;;5.14;33.56
62942;BME280;49042;47.318;19.874;2024-01-10T12:10:29;102102.28;;;4.75;34.32
62942;BME280;49042;47.318;19.874;2024-01-10T12:13:36;102083.19;;;5.06;35.04
62942;BME280;49042;47.318;19.874;2024-01-10T12:16:38;102091.47;;;5.35;35.24
62942;BME280;49042;47.318;19.874;2024-01-10T12:19:40;102081.00;;;4.57;36.34
62942;BME280;49042;47.318;19.874;2024-01-10T12:22:47;102077.66;;;4.47;35.19
62942;BME280;49042;47.318;19.874;2024-01-10T12:25:49;102079.84;;;4.43;36.61
62942;BME280;49042;47.318;19.874;2024-01-10T12:28:54;102076.50;;;4.44;36.05
62942;BME280;49042;47.318;19.874;2024-01-10T12:31:57;102080.34;;;4.70;36.35
62942;BME280;49042;47.318;19.874;2024-01-10T12:35:02;102088.63;;;4.55;36.39
62942;BME280;49042;47.318;19.874;2024-01-10T12:38:04;102081.75;;;5.10;35.56
62942;BME280;49042;47.318;19.874;2024-01-10T12:41:06;102082.19;;;4.29;36.73
62942;BME280;49042;47.318;19.874;2024-01-10T12:44:10;102085.81;;;4.96;36.08
62942;BME280;49042;47.318;19.874;2024-01-10T12:47:19;102083.31;;;4.64;35.93
62942;BME280;49042;47.318;19.874;2024-01-10T12:50:22;102078.53;;;4.69;35.14
62942;BME280;49042;47.318;19.874;2024-01-10T12:53:28;102068.75;;;4.44;36.50
62942;BME280;49042;47.318;19.874;2024-01-10T12:56:30;102070.03;;;4.17;37.08
62942;BME280;49042;47.318;19.874;2024-01-10T12:59:32;102065.47;;;3.41;37.85
62942;BME280;49042;47.318;19.874;2024-01-10T13:02:35;102067.34;;;3.95;37.27
62942;BME280;49042;47.318;19.874;2024-01-10T13:05:39;102069.78;;;4.25;36.98
62942;BME280;49042;47.318;19.874;2024-01-10T13:08:41;102056.84;;;4.35;36.30
62942;BME280;49042;47.318;19.874;2024-01-10T13:11:43;102057.66;;;4.34;36.38
62942;BME280;49042;47.318;19.874;2024-01-10T13:14:47;102058.94;;;4.18;36.97
62942;BME280;49042;47.318;19.874;2024-01-10T13:17:48;102062.28;;;3.14;38.79
62942;BME280;49042;47.318;19.874;2024-01-10T13:20:51;102060.37;;;3.32;38.72
62942;BME280;49042;47.318;19.874;2024-01-10T13:23:52;102064.37;;;3.29;39.17
62942;BME280;49042;47.318;19.874;2024-01-10T13:26:54;102067.06;;;3.20;39.04
62942;BME280;49042;47.318;19.874;2024-01-10T13:29:56;102068.69;;;2.79;39.65
62942;BME280;49042;47.318;19.874;2024-01-10T13:32:59;102061.13;;;2.42;39.88
62942;BME280;49042;47.318;19.874;2024-01-10T13:36:01;102060.63;;;2.46;40.25
62942;BME280;49042;47.318;19.874;2024-01-10T13:39:03;102053.87;;;2.57;39.91
62942;BME280;49042;47.318;19.874;2024-01-10T13:42:05;102050.56;;;3.18;39.70
62942;BME280;49042;47.318;19.874;2024-01-10T13:45:08;102048.28;;;2.72;39.41
62942;BME280;49042;47.318;19.874;2024-01-10T13:48:12;102048.84;;;2.78;39.67
62942;BME280;49042;47.318;19.874;2024-01-10T13:51:13;102048.84;;;2.59;40.45
62942;BME280;49042;47.318;19.874;2024-01-10T13:54:15;102049.09;;;3.11;39.37
62942;BME280;49042;47.318;19.874;2024-01-10T13:57:17;102041.56;;;2.93;39.91
62942;BME280;49042;47.318;19.874;2024-01-10T14:00:20;102039.81;;;2.83;39.60
62942;BME280;49042;47.318;19.874;2024-01-10T14:03:22;102038.16;;;2.84;39.82
62942;BME280;49042;47.318;19.874;2024-01-10T14:06:24;102036.72;;;2.77;39.97
62942;BME280;49042;47.318;19.874;2024-01-10T14:09:25;102032.50;;;2.19;40.51
62942;BME280;49042;47.318;19.874;2024-01-10T14:12:28;102038.41;;;2.38;40.32
62942;BME280;49042;47.318;19.874;2024-01-10T14:15:30;102027.69;;;2.52;40.95
62942;BME280;49042;47.318;19.874;2024-01-10T14:18:32;102030.63;;;2.46;41.14
62942;BME280;49042;47.318;19.874;2024-01-10T14:21:34;102033.63;;;1.84;42.05
62942;BME280;49042;47.318;19.874;2024-01-10T14:24:36;102023.31;;;1.65;42.81
62942;BME280;49042;47.318;19.874;2024-01-10T14:27:40;102035.06;;;1.71;43.89
62942;BME280;49042;47.318;19.874;2024-01-10T14:30:41;102027.25;;;1.89;44.12
62942;BME280;49042;47.318;19.874;2024-01-10T14:33:43;102035.31;;;1.55;44.33
62942;BME280;49042;47.318;19.874;2024-01-10T14:36:45;102034.91;;;1.70;44.77
62942;BME280;49042;47.318;19.874;2024-01-10T14:39:47;102039.16;;;1.41;45.75
62942;BME280;49042;47.318;19.874;2024-01-10T14:42:49;102042.59;;;1.42;45.66
62942;BME280;49042;47.318;19.874;2024-01-10T14:45:51;102041.28;;;1.36;46.41
62942;BME280;49042;47.318;19.874;2024-01-10T14:48:53;102037.31;;;0.94;48.09
62942;BME280;49042;47.318;19.874;2024-01-10T14:51:55;102043.37;;;0.94;49.40
62942;BME280;49042;47.318;19.874;2024-01-10T14:54:56;102035.56;;;0.57;51.17
62942;BME280;49042;47.318;19.874;2024-01-10T14:57:58;102036.47;;;0.40;53.55
62942;BME280;49042;47.318;19.874;2024-01-10T15:01:00;102035.88;;;0.25;53.76
62942;BME280;49042;47.318;19.874;2024-01-10T15:04:02;102035.25;;;0.36;53.30
62942;BME280;49042;47.318;19.874;2024-01-10T15:07:06;102030.28;;;0.38;54.89
62942;BME280;49042;47.318;19.874;2024-01-10T15:10:08;102040.97;;;0.42;54.76
62942;BME280;49042;47.318;19.874;2024-01-10T15:13:10;102038.91;;;0.38;55.85
62942;BME280;49042;47.318;19.874;2024-01-10T15:16:12;102044.00;;;0.29;57.57
62942;BME280;49042;47.318;19.874;2024-01-10T15:19:14;102047.31;;;0.28;58.25
62942;BME280;49042;47.318;19.874;2024-01-10T15:22:16;102041.72;;;0.15;61.32
62942;BME280;49042;47.318;19.874;2024-01-10T15:25:19;102042.34;;;0.03;63.36
62942;BME280;49042;47.318;19.874;2024-01-10T15:28:21;102041.81;;;-0.28;65.80
62942;BME280;49042;47.318;19.874;2024-01-10T15:31:23;102036.69;;;-0.19;65.85
62942;BME280;49042;47.318;19.874;2024-01-10T15:34:26;102045.25;;;-0.28;67.09
62942;BME280;49042;47.318;19.874;2024-01-10T15:37:28;102036.63;;;-0.37;66.75
62942;BME280;49042;47.318;19.874;2024-01-10T15:40:30;102045.97;;;-0.47;66.36
62942;BME280;49042;47.318;19.874;2024-01-10T15:43:31;102040.97;;;-0.45;67.73
62942;BME280;49042;47.318;19.874;2024-01-10T15:46:33;102039.31;;;-0.53;68.46